sensor_id;sensor_type;location;lat;lon;timestamp;P1;durP1;ratioP1;P2;durP2;ratioP2
17832;SDS011;9041;49.718;21.798;2023-09-30T00:01:42;26.55;;;14.18;;
17832;SDS011;9041;49.718;21.798;2023-09-30T00:04:09;29.23;;;15.43;;
17832;SDS011;9041;49.718;21.798;2023-09-30T00:06:36;23.17;;;13.65;;
17832;SDS011;9041;49.718;21.798;2023-09-30T00:09:03;25.30;;;12.48;;
17832;SDS011;9041;49.718;21.798;2023-09-30T00:11:30;21.05;;;12.80;;
17832;SDS011;9041;49.718;21.798;2023-09-30T00:14:05;25.92;;;11.93;;
17832;SDS011;9041;49.718;21.798;2023-09-30T00:16:32;23.02;;;12.02;;
17832;SDS011;9041;49.718;21.798;2023-09-30T00:18:59;22.38;;;11.68;;
17832;SDS011;9041;49.718;21.798;2023-09-30T00:21:27;22.17;;;11.13;;
17832;SDS011;9041;49.718;21.798;2023-09-30T00:23:54;19.50;;;10.93;;
17832;SDS011;9041;49.718;21.798;2023-09-30T00:26:20;23.10;;;10.52;;
17832;SDS011;9041;49.718;21.798;2023-09-30T00:28:48;18.67;;;10.90;;
17832;SDS011;9041;49.718;21.798;2023-09-30T00:31:16;17.77;;;10.45;;
17832;SDS011;9041;49.718;21.798;2023-09-30T00:33:42;21.88;;;11.02;;
17832;SDS011;9041;49.718;21.798;2023-09-30T00:36:09;21.17;;;10.93;;
17832;SDS011;9041;49.718;21.798;2023-09-30T00:38:37;20.10;;;10.23;;
17832;SDS011;9041;49.718;21.798;2023-09-30T00:41:04;19.83;;;11.18;;
17832;SDS011;9041;49.718;21.798;2023-09-30T00:43:32;21.63;;;10.32;;
17832;SDS011;9041;49.718;21.798;2023-09-30T00:46:01;19.75;;;9.70;;
17832;SDS011;9041;49.718;21.798;2023-09-30T00:48:32;18.55;;;10.40;;
17832;SDS011;9041;49.718;21.798;2023-09-30T00:50:59;22.05;;;10.75;;
17832;SDS011;9041;49.718;21.798;2023-09-30T00:53:25;19.52;;;10.32;;
17832;SDS011;9041;49.718;21.798;2023-09-30T00:55:52;18.90;;;10.57;;
17832;SDS011;9041;49.718;21.798;2023-09-30T00:58:20;18.45;;;10.23;;
17832;SDS011;9041;49.718;21.798;2023-09-30T01:00:48;25.80;;;11.23;;
17832;SDS011;9041;49.718;21.798;2023-09-30T01:03:15;18.27;;;10.25;;
17832;SDS011;9041;49.718;21.798;2023-09-30T01:05:43;21.52;;;12.02;;
17832;SDS011;9041;49.718;21.798;2023-09-30T01:08:10;18.90;;;10.45;;
17832;SDS011;9041;49.718;21.798;2023-09-30T01:10:37;21.20;;;9.52;;
17832;SDS011;9041;49.718;21.798;2023-09-30T01:13:03;18.35;;;10.05;;
17832;SDS011;9041;49.718;21.798;2023-09-30T01:15:30;16.23;;;9.90;;
17832;SDS011;9041;49.718;21.798;2023-09-30T01:17:56;18.73;;;9.45;;
17832;SDS011;9041;49.718;21.798;2023-09-30T01:20:24;20.48;;;10.80;;
17832;SDS011;9041;49.718;21.798;2023-09-30T01:22:53;18.25;;;10.30;;
17832;SDS011;9041;49.718;21.798;2023-09-30T01:25:20;19.80;;;10.68;;
17832;SDS011;9041;49.718;21.798;2023-09-30T01:27:47;21.05;;;11.13;;
17832;SDS011;9041;49.718;21.798;2023-09-30T01:30:16;19.00;;;10.60;;
17832;SDS011;9041;49.718;21.798;2023-09-30T01:32:43;20.00;;;11.10;;
17832;SDS011;9041;49.718;21.798;2023-09-30T01:35:10;19.45;;;10.00;;
17832;SDS011;9041;49.718;21.798;2023-09-30T01:37:36;24.65;;;10.65;;
17832;SDS011;9041;49.718;21.798;2023-09-30T01:40:05;22.30;;;10.60;;
17832;SDS011;9041;49.718;21.798;2023-09-30T01:42:36;19.58;;;10.43;;
17832;SDS011;9041;49.718;21.798;2023-09-30T01:45:03;17.13;;;9.75;;
17832;SDS011;9041;49.718;21.798;2023-09-30T01:47:30;21.40;;;10.30;;
17832;SDS011;9041;49.718;21.798;2023-09-30T01:49:57;22.02;;;11.02;;
17832;SDS011;9041;49.718;21.798;2023-09-30T01:52:24;20.60;;;11.10;;
17832;SDS011;9041;49.718;21.798;2023-09-30T01:54:50;18.85;;;10.27;;
17832;SDS011;9041;49.718;21.798;2023-09-30T01:57:18;17.35;;;10.00;;
17832;SDS011;9041;49.718;21.798;2023-09-30T01:59:45;18.55;;;10.23;;
17832;SDS011;9041;49.718;21.798;2023-09-30T02:02:12;19.95;;;10.70;;
17832;SDS011;9041;49.718;21.798;2023-09-30T02:04:39;18.88;;;10.20;;
17832;SDS011;9041;49.718;21.798;2023-09-30T02:07:05;23.13;;;10.90;;
17832;SDS011;9041;49.718;21.798;2023-09-30T02:09:32;18.25;;;9.63;;
17832;SDS011;9041;49.718;21.798;2023-09-30T02:11:59;19.55;;;9.98;;
17832;SDS011;9041;49.718;21.798;2023-09-30T02:14:27;17.58;;;10.18;;
17832;SDS011;9041;49.718;21.798;2023-09-30T02:16:54;22.73;;;10.23;;
17832;SDS011;9041;49.718;21.798;2023-09-30T02:19:20;20.00;;;9.95;;
17832;SDS011;9041;49.718;21.798;2023-09-30T02:21:47;20.40;;;10.40;;
17832;SDS011;9041;49.718;21.798;2023-09-30T02:24:14;20.70;;;10.10;;
17832;SDS011;9041;49.718;21.798;2023-09-30T02:26:40;18.92;;;10.57;;
17832;SDS011;9041;49.718;21.798;2023-09-30T02:29:07;19.23;;;10.50;;
17832;SDS011;9041;49.718;21.798;2023-09-30T02:31:35;20.63;;;10.55;;
17832;SDS011;9041;49.718;21.798;2023-09-30T02:34:01;20.10;;;10.40;;
17832;SDS011;9041;49.718;21.798;2023-09-30T02:36:28;17.65;;;10.18;;
17832;SDS011;9041;49.718;21.798;2023-09-30T02:38:55;18.80;;;9.60;;
17832;SDS011;9041;49.718;21.798;2023-09-30T02:41:23;17.67;;;9.43;;
17832;SDS011;9041;49.718;21.798;2023-09-30T02:43:49;15.38;;;9.77;;
17832;SDS011;9041;49.718;21.798;2023-09-30T02:46:16;15.43;;;9.00;;
17832;SDS011;9041;49.718;21.798;2023-09-30T02:48:44;20.33;;;9.95;;
17832;SDS011;9041;49.718;21.798;2023-09-30T02:51:11;21.33;;;10.23;;
17832;SDS011;9041;49.718;21.798;2023-09-30T02:53:37;18.77;;;10.10;;
17832;SDS011;9041;49.718;21.798;2023-09-30T02:56:04;16.08;;;9.25;;
17832;SDS011;9041;49.718;21.798;2023-09-30T02:58:30;20.00;;;10.00;;
17832;SDS011;9041;49.718;21.798;2023-09-30T03:00:57;19.50;;;10.50;;
17832;SDS011;9041;49.718;21.798;2023-09-30T03:03:24;19.45;;;10.32;;
17832;SDS011;9041;49.718;21.798;2023-09-30T03:05:53;21.13;;;10.57;;
17832;SDS011;9041;49.718;21.798;2023-09-30T03:08:19;17.77;;;10.20;;
17832;SDS011;9041;49.718;21.798;2023-09-30T03:10:47;16.17;;;9.60;;
17832;SDS011;9041;49.718;21.798;2023-09-30T03:13:13;22.48;;;10.55;;
17832;SDS011;9041;49.718;21.798;2023-09-30T03:15:40;20.45;;;10.50;;
17832;SDS011;9041;49.718;21.798;2023-09-30T03:18:06;19.30;;;10.68;;
17832;SDS011;9041;49.718;21.798;2023-09-30T03:20:33;21.05;;;9.88;;
17832;SDS011;9041;49.718;21.798;2023-09-30T03:23:02;19.90;;;10.65;;
17832;SDS011;9041;49.718;21.798;2023-09-30T03:25:29;19.00;;;10.55;;
17832;SDS011;9041;49.718;21.798;2023-09-30T03:27:56;15.98;;;9.50;;
17832;SDS011;9041;49.718;21.798;2023-09-30T03:30:23;21.10;;;11.07;;
17832;SDS011;9041;49.718;21.798;2023-09-30T03:32:49;18.40;;;9.55;;
17832;SDS011;9041;49.718;21.798;2023-09-30T03:35:16;21.13;;;10.40;;
17832;SDS011;9041;49.718;21.798;2023-09-30T03:37:43;17.38;;;9.85;;
17832;SDS011;9041;49.718;21.798;2023-09-30T03:40:13;23.00;;;11.55;;
17832;SDS011;9041;49.718;21.798;2023-09-30T03:42:43;18.60;;;10.23;;
17832;SDS011;9041;49.718;21.798;2023-09-30T03:45:11;23.08;;;10.23;;
17832;SDS011;9041;49.718;21.798;2023-09-30T03:47:39;19.88;;;10.27;;
17832;SDS011;9041;49.718;21.798;2023-09-30T03:50:06;19.88;;;10.32;;
17832;SDS011;9041;49.718;21.798;2023-09-30T03:52:38;19.50;;;10.80;;
17832;SDS011;9041;49.718;21.798;2023-09-30T03:55:05;18.75;;;10.80;;
17832;SDS011;9041;49.718;21.798;2023-09-30T03:57:34;26.98;;;10.52;;
17832;SDS011;9041;49.718;21.798;2023-09-30T04:00:01;19.92;;;10.52;;
17832;SDS011;9041;49.718;21.798;2023-09-30T04:02:31;19.88;;;11.48;;
17832;SDS011;9041;49.718;21.798;2023-09-30T04:04:58;21.42;;;10.85;;
17832;SDS011;9041;49.718;21.798;2023-09-30T04:07:29;20.58;;;10.73;;
17832;SDS011;9041;49.718;21.798;2023-09-30T04:09:55;20.15;;;10.35;;
17832;SDS011;9041;49.718;21.798;2023-09-30T04:12:22;20.25;;;10.70;;
17832;SDS011;9041;49.718;21.798;2023-09-30T04:14:50;18.50;;;9.93;;
17832;SDS011;9041;49.718;21.798;2023-09-30T04:17:18;18.40;;;9.88;;
17832;SDS011;9041;49.718;21.798;2023-09-30T04:19:44;21.35;;;10.95;;
17832;SDS011;9041;49.718;21.798;2023-09-30T04:22:12;19.90;;;11.10;;
17832;SDS011;9041;49.718;21.798;2023-09-30T04:24:41;20.55;;;10.68;;
17832;SDS011;9041;49.718;21.798;2023-09-30T04:27:08;23.08;;;10.90;;
17832;SDS011;9041;49.718;21.798;2023-09-30T04:29:35;23.77;;;10.77;;
17832;SDS011;9041;49.718;21.798;2023-09-30T04:32:03;18.23;;;9.85;;
17832;SDS011;9041;49.718;21.798;2023-09-30T04:34:31;16.50;;;10.50;;
17832;SDS011;9041;49.718;21.798;2023-09-30T04:36:58;19.23;;;10.48;;
17832;SDS011;9041;49.718;21.798;2023-09-30T04:39:25;22.70;;;10.23;;
17832;SDS011;9041;49.718;21.798;2023-09-30T04:41:51;19.45;;;9.80;;
17832;SDS011;9041;49.718;21.798;2023-09-30T04:44:19;22.42;;;11.15;;
17832;SDS011;9041;49.718;21.798;2023-09-30T04:46:46;26.15;;;11.32;;
17832;SDS011;9041;49.718;21.798;2023-09-30T04:49:15;21.15;;;10.93;;
17832;SDS011;9041;49.718;21.798;2023-09-30T04:51:42;21.83;;;11.80;;
17832;SDS011;9041;49.718;21.798;2023-09-30T04:54:09;21.52;;;11.40;;
17832;SDS011;9041;49.718;21.798;2023-09-30T04:56:36;23.33;;;11.50;;
17832;SDS011;9041;49.718;21.798;2023-09-30T04:59:03;28.15;;;12.20;;
17832;SDS011;9041;49.718;21.798;2023-09-30T05:01:30;22.48;;;10.98;;
17832;SDS011;9041;49.718;21.798;2023-09-30T05:03:56;22.25;;;11.45;;
17832;SDS011;9041;49.718;21.798;2023-09-30T05:06:25;22.98;;;11.95;;
17832;SDS011;9041;49.718;21.798;2023-09-30T05:08:51;19.83;;;11.48;;
17832;SDS011;9041;49.718;21.798;2023-09-30T05:11:18;26.23;;;11.90;;
17832;SDS011;9041;49.718;21.798;2023-09-30T05:13:45;25.83;;;12.10;;
17832;SDS011;9041;49.718;21.798;2023-09-30T05:16:11;20.13;;;11.15;;
17832;SDS011;9041;49.718;21.798;2023-09-30T05:18:39;29.35;;;13.18;;
17832;SDS011;9041;49.718;21.798;2023-09-30T05:21:05;21.92;;;12.18;;
17832;SDS011;9041;49.718;21.798;2023-09-30T05:23:34;20.77;;;11.98;;
17832;SDS011;9041;49.718;21.798;2023-09-30T05:26:01;21.73;;;11.85;;
17832;SDS011;9041;49.718;21.798;2023-09-30T05:28:27;23.15;;;12.02;;
17832;SDS011;9041;49.718;21.798;2023-09-30T05:30:54;24.02;;;12.15;;
17832;SDS011;9041;49.718;21.798;2023-09-30T05:33:21;23.95;;;12.55;;
17832;SDS011;9041;49.718;21.798;2023-09-30T05:35:48;26.35;;;13.27;;
17832;SDS011;9041;49.718;21.798;2023-09-30T05:38:15;24.88;;;12.48;;
17832;SDS011;9041;49.718;21.798;2023-09-30T05:40:43;22.50;;;12.75;;
17832;SDS011;9041;49.718;21.798;2023-09-30T05:43:14;23.35;;;12.20;;
17832;SDS011;9041;49.718;21.798;2023-09-30T05:45:41;25.05;;;13.45;;
17832;SDS011;9041;49.718;21.798;2023-09-30T05:48:14;22.45;;;12.57;;
17832;SDS011;9041;49.718;21.798;2023-09-30T05:50:41;25.05;;;11.93;;
17832;SDS011;9041;49.718;21.798;2023-09-30T05:53:09;24.80;;;13.20;;
17832;SDS011;9041;49.718;21.798;2023-09-30T05:55:35;25.88;;;13.30;;
17832;SDS011;9041;49.718;21.798;2023-09-30T05:58:04;26.45;;;13.52;;
17832;SDS011;9041;49.718;21.798;2023-09-30T06:00:30;28.10;;;13.40;;
17832;SDS011;9041;49.718;21.798;2023-09-30T06:02:59;24.48;;;12.68;;
17832;SDS011;9041;49.718;21.798;2023-09-30T06:05:26;22.05;;;11.93;;
17832;SDS011;9041;49.718;21.798;2023-09-30T06:07:55;23.67;;;11.98;;
17832;SDS011;9041;49.718;21.798;2023-09-30T06:10:22;28.17;;;14.07;;
17832;SDS011;9041;49.718;21.798;2023-09-30T06:12:50;23.60;;;12.80;;
17832;SDS011;9041;49.718;21.798;2023-09-30T06:15:21;23.02;;;11.80;;
17832;SDS011;9041;49.718;21.798;2023-09-30T06:17:51;23.92;;;12.10;;
17832;SDS011;9041;49.718;21.798;2023-09-30T06:20:18;18.45;;;10.50;;
17832;SDS011;9041;49.718;21.798;2023-09-30T06:22:45;20.83;;;10.65;;
17832;SDS011;9041;49.718;21.798;2023-09-30T06:25:12;16.73;;;9.85;;
17832;SDS011;9041;49.718;21.798;2023-09-30T06:27:41;19.90;;;9.80;;
17832;SDS011;9041;49.718;21.798;2023-09-30T06:30:08;15.93;;;9.25;;
17832;SDS011;9041;49.718;21.798;2023-09-30T06:32:37;17.00;;;9.40;;
17832;SDS011;9041;49.718;21.798;2023-09-30T06:35:04;14.77;;;9.25;;
17832;SDS011;9041;49.718;21.798;2023-09-30T06:37:31;14.20;;;8.98;;
17832;SDS011;9041;49.718;21.798;2023-09-30T06:39:58;15.57;;;9.20;;
17832;SDS011;9041;49.718;21.798;2023-09-30T06:42:25;15.00;;;8.57;;
17832;SDS011;9041;49.718;21.798;2023-09-30T06:44:53;16.85;;;8.65;;
17832;SDS011;9041;49.718;21.798;2023-09-30T06:47:20;18.10;;;8.63;;
17832;SDS011;9041;49.718;21.798;2023-09-30T06:49:47;16.02;;;8.68;;
17832;SDS011;9041;49.718;21.798;2023-09-30T06:52:14;13.23;;;8.20;;
17832;SDS011;9041;49.718;21.798;2023-09-30T06:54:41;12.68;;;7.95;;
17832;SDS011;9041;49.718;21.798;2023-09-30T06:57:08;15.10;;;7.80;;
17832;SDS011;9041;49.718;21.798;2023-09-30T06:59:35;14.07;;;7.65;;
17832;SDS011;9041;49.718;21.798;2023-09-30T07:02:02;15.90;;;8.10;;
17832;SDS011;9041;49.718;21.798;2023-09-30T07:04:29;13.90;;;7.28;;
17832;SDS011;9041;49.718;21.798;2023-09-30T07:06:57;13.95;;;7.68;;
17832;SDS011;9041;49.718;21.798;2023-09-30T07:09:24;11.85;;;7.70;;
17832;SDS011;9041;49.718;21.798;2023-09-30T07:11:51;10.65;;;7.32;;
17832;SDS011;9041;49.718;21.798;2023-09-30T07:14:18;13.48;;;7.75;;
17832;SDS011;9041;49.718;21.798;2023-09-30T07:16:45;18.55;;;8.05;;
17832;SDS011;9041;49.718;21.798;2023-09-30T07:19:12;11.65;;;7.38;;
17832;SDS011;9041;49.718;21.798;2023-09-30T07:21:38;12.98;;;7.50;;
17832;SDS011;9041;49.718;21.798;2023-09-30T07:24:07;14.00;;;7.38;;
17832;SDS011;9041;49.718;21.798;2023-09-30T07:26:36;13.00;;;7.72;;
17832;SDS011;9041;49.718;21.798;2023-09-30T07:29:03;13.02;;;8.13;;
17832;SDS011;9041;49.718;21.798;2023-09-30T07:31:32;14.05;;;7.85;;
17832;SDS011;9041;49.718;21.798;2023-09-30T07:34:00;13.75;;;7.78;;
17832;SDS011;9041;49.718;21.798;2023-09-30T07:36:27;15.18;;;8.00;;
17832;SDS011;9041;49.718;21.798;2023-09-30T07:38:54;16.25;;;7.55;;
17832;SDS011;9041;49.718;21.798;2023-09-30T07:41:22;11.73;;;7.25;;
17832;SDS011;9041;49.718;21.798;2023-09-30T07:43:49;14.60;;;7.70;;
17832;SDS011;9041;49.718;21.798;2023-09-30T07:46:15;11.90;;;7.28;;
17832;SDS011;9041;49.718;21.798;2023-09-30T07:48:42;14.40;;;7.22;;
17832;SDS011;9041;49.718;21.798;2023-09-30T07:51:08;11.73;;;7.00;;
17832;SDS011;9041;49.718;21.798;2023-09-30T07:53:38;12.85;;;6.63;;
17832;SDS011;9041;49.718;21.798;2023-09-30T07:56:05;10.00;;;6.97;;
17832;SDS011;9041;49.718;21.798;2023-09-30T07:58:33;10.85;;;6.90;;
17832;SDS011;9041;49.718;21.798;2023-09-30T08:01:00;13.55;;;7.50;;
17832;SDS011;9041;49.718;21.798;2023-09-30T08:03:27;12.27;;;7.70;;
17832;SDS011;9041;49.718;21.798;2023-09-30T08:05:54;16.25;;;7.50;;
17832;SDS011;9041;49.718;21.798;2023-09-30T08:08:21;16.25;;;7.40;;
17832;SDS011;9041;49.718;21.798;2023-09-30T08:10:49;14.23;;;7.35;;
17832;SDS011;9041;49.718;21.798;2023-09-30T08:13:20;13.68;;;7.60;;
17832;SDS011;9041;49.718;21.798;2023-09-30T08:15:48;18.38;;;7.65;;
17832;SDS011;9041;49.718;21.798;2023-09-30T08:18:15;11.27;;;6.70;;
17832;SDS011;9041;49.718;21.798;2023-09-30T08:20:42;18.65;;;8.05;;
17832;SDS011;9041;49.718;21.798;2023-09-30T08:23:09;13.90;;;7.57;;
17832;SDS011;9041;49.718;21.798;2023-09-30T08:25:36;11.20;;;7.47;;
17832;SDS011;9041;49.718;21.798;2023-09-30T08:28:03;14.40;;;7.05;;
17832;SDS011;9041;49.718;21.798;2023-09-30T08:30:30;13.30;;;7.25;;
17832;SDS011;9041;49.718;21.798;2023-09-30T08:33:00;20.75;;;7.65;;
17832;SDS011;9041;49.718;21.798;2023-09-30T08:35:26;14.05;;;8.02;;
17832;SDS011;9041;49.718;21.798;2023-09-30T08:37:53;19.30;;;8.18;;
17832;SDS011;9041;49.718;21.798;2023-09-30T08:40:20;18.33;;;8.63;;
17832;SDS011;9041;49.718;21.798;2023-09-30T08:42:47;19.60;;;8.10;;
17832;SDS011;9041;49.718;21.798;2023-09-30T08:45:15;18.00;;;8.57;;
17832;SDS011;9041;49.718;21.798;2023-09-30T08:47:43;22.40;;;8.43;;
17832;SDS011;9041;49.718;21.798;2023-09-30T08:52:55;18.23;;;7.82;;
17832;SDS011;9041;49.718;21.798;2023-09-30T08:55:22;19.27;;;7.10;;
17832;SDS011;9041;49.718;21.798;2023-09-30T08:57:50;11.85;;;7.22;;
17832;SDS011;9041;49.718;21.798;2023-09-30T09:00:18;17.33;;;7.65;;
17832;SDS011;9041;49.718;21.798;2023-09-30T09:02:46;13.07;;;6.88;;
17832;SDS011;9041;49.718;21.798;2023-09-30T09:05:13;15.98;;;7.75;;
17832;SDS011;9041;49.718;21.798;2023-09-30T09:07:42;14.10;;;6.70;;
17832;SDS011;9041;49.718;21.798;2023-09-30T09:10:09;15.00;;;7.20;;
17832;SDS011;9041;49.718;21.798;2023-09-30T09:12:39;10.82;;;6.85;;
17832;SDS011;9041;49.718;21.798;2023-09-30T09:15:07;15.25;;;6.53;;
17832;SDS011;9041;49.718;21.798;2023-09-30T09:17:41;12.38;;;5.82;;
17832;SDS011;9041;49.718;21.798;2023-09-30T09:20:09;18.70;;;7.35;;
17832;SDS011;9041;49.718;21.798;2023-09-30T09:22:38;15.00;;;6.55;;
17832;SDS011;9041;49.718;21.798;2023-09-30T09:25:07;13.57;;;5.97;;
17832;SDS011;9041;49.718;21.798;2023-09-30T09:27:34;13.68;;;6.95;;
17832;SDS011;9041;49.718;21.798;2023-09-30T09:30:15;14.85;;;7.30;;
17832;SDS011;9041;49.718;21.798;2023-09-30T09:32:51;16.98;;;7.53;;
17832;SDS011;9041;49.718;21.798;2023-09-30T09:35:20;11.75;;;7.15;;
17832;SDS011;9041;49.718;21.798;2023-09-30T09:37:53;13.07;;;7.15;;
17832;SDS011;9041;49.718;21.798;2023-09-30T09:40:24;13.90;;;7.47;;
17832;SDS011;9041;49.718;21.798;2023-09-30T09:42:53;19.38;;;7.10;;
17832;SDS011;9041;49.718;21.798;2023-09-30T09:45:21;11.93;;;7.57;;
17832;SDS011;9041;49.718;21.798;2023-09-30T09:47:49;11.98;;;7.32;;
17832;SDS011;9041;49.718;21.798;2023-09-30T09:50:17;13.15;;;7.68;;
17832;SDS011;9041;49.718;21.798;2023-09-30T09:52:44;14.77;;;7.38;;
17832;SDS011;9041;49.718;21.798;2023-09-30T09:55:11;20.55;;;8.00;;
17832;SDS011;9041;49.718;21.798;2023-09-30T09:57:39;21.67;;;7.38;;
17832;SDS011;9041;49.718;21.798;2023-09-30T10:00:07;14.50;;;7.78;;
17832;SDS011;9041;49.718;21.798;2023-09-30T10:02:39;22.10;;;7.22;;
17832;SDS011;9041;49.718;21.798;2023-09-30T10:05:06;16.30;;;7.05;;
17832;SDS011;9041;49.718;21.798;2023-09-30T10:07:35;12.80;;;7.03;;
17832;SDS011;9041;49.718;21.798;2023-09-30T10:10:04;13.40;;;6.93;;
17832;SDS011;9041;49.718;21.798;2023-09-30T10:12:36;14.30;;;7.07;;
17832;SDS011;9041;49.718;21.798;2023-09-30T10:18:05;17.35;;;7.35;;
17832;SDS011;9041;49.718;21.798;2023-09-30T10:20:33;24.40;;;7.80;;
17832;SDS011;9041;49.718;21.798;2023-09-30T10:25:51;16.23;;;8.88;;
17832;SDS011;9041;49.718;21.798;2023-09-30T10:28:38;18.70;;;8.18;;
17832;SDS011;9041;49.718;21.798;2023-09-30T10:31:11;18.80;;;8.60;;
17832;SDS011;9041;49.718;21.798;2023-09-30T10:36:41;27.73;;;8.32;;
17832;SDS011;9041;49.718;21.798;2023-09-30T10:39:11;16.02;;;7.38;;
17832;SDS011;9041;49.718;21.798;2023-09-30T10:41:49;14.07;;;7.15;;
17832;SDS011;9041;49.718;21.798;2023-09-30T10:44:33;19.70;;;7.45;;
17832;SDS011;9041;49.718;21.798;2023-09-30T10:47:34;11.57;;;6.80;;
17832;SDS011;9041;49.718;21.798;2023-09-30T10:53:07;20.38;;;8.98;;
17832;SDS011;9041;49.718;21.798;2023-09-30T10:55:35;29.48;;;10.10;;
17832;SDS011;9041;49.718;21.798;2023-09-30T10:58:02;18.52;;;9.45;;
17832;SDS011;9041;49.718;21.798;2023-09-30T11:00:29;20.73;;;8.98;;
17832;SDS011;9041;49.718;21.798;2023-09-30T11:02:57;17.75;;;8.15;;
17832;SDS011;9041;49.718;21.798;2023-09-30T11:05:24;28.90;;;9.30;;
17832;SDS011;9041;49.718;21.798;2023-09-30T11:07:50;16.52;;;8.70;;
17832;SDS011;9041;49.718;21.798;2023-09-30T11:10:18;22.65;;;8.07;;
17832;SDS011;9041;49.718;21.798;2023-09-30T11:12:54;14.27;;;7.97;;
17832;SDS011;9041;49.718;21.798;2023-09-30T11:15:22;15.98;;;8.43;;
17832;SDS011;9041;49.718;21.798;2023-09-30T11:17:48;15.50;;;7.82;;
17832;SDS011;9041;49.718;21.798;2023-09-30T11:20:17;22.10;;;8.55;;
17832;SDS011;9041;49.718;21.798;2023-09-30T11:22:44;18.27;;;8.38;;
17832;SDS011;9041;49.718;21.798;2023-09-30T11:25:14;14.52;;;8.30;;
17832;SDS011;9041;49.718;21.798;2023-09-30T11:27:42;18.17;;;9.05;;
17832;SDS011;9041;49.718;21.798;2023-09-30T11:30:10;17.35;;;8.65;;
17832;SDS011;9041;49.718;21.798;2023-09-30T11:32:38;16.73;;;8.52;;
17832;SDS011;9041;49.718;21.798;2023-09-30T11:35:08;17.50;;;8.40;;
17832;SDS011;9041;49.718;21.798;2023-09-30T11:37:36;24.27;;;8.93;;
17832;SDS011;9041;49.718;21.798;2023-09-30T11:40:10;18.65;;;9.20;;
17832;SDS011;9041;49.718;21.798;2023-09-30T11:42:38;27.30;;;11.02;;
17832;SDS011;9041;49.718;21.798;2023-09-30T11:45:18;19.63;;;10.07;;
17832;SDS011;9041;49.718;21.798;2023-09-30T11:47:45;19.10;;;9.82;;
17832;SDS011;9041;49.718;21.798;2023-09-30T11:50:13;16.90;;;10.07;;
17832;SDS011;9041;49.718;21.798;2023-09-30T11:52:44;17.20;;;10.13;;
17832;SDS011;9041;49.718;21.798;2023-09-30T11:55:12;25.23;;;11.07;;
17832;SDS011;9041;49.718;21.798;2023-09-30T11:57:41;23.55;;;10.85;;
17832;SDS011;9041;49.718;21.798;2023-09-30T12:00:08;19.23;;;11.05;;
17832;SDS011;9041;49.718;21.798;2023-09-30T12:02:38;24.17;;;10.30;;
17832;SDS011;9041;49.718;21.798;2023-09-30T12:05:07;26.55;;;10.70;;
17832;SDS011;9041;49.718;21.798;2023-09-30T12:07:36;21.58;;;10.55;;
17832;SDS011;9041;49.718;21.798;2023-09-30T12:10:08;24.13;;;12.02;;
17832;SDS011;9041;49.718;21.798;2023-09-30T12:12:35;30.30;;;13.43;;
17832;SDS011;9041;49.718;21.798;2023-09-30T12:15:01;21.92;;;12.32;;
17832;SDS011;9041;49.718;21.798;2023-09-30T12:17:29;18.75;;;10.57;;
17832;SDS011;9041;49.718;21.798;2023-09-30T12:19:55;23.95;;;12.15;;
17832;SDS011;9041;49.718;21.798;2023-09-30T12:22:22;26.55;;;11.30;;
17832;SDS011;9041;49.718;21.798;2023-09-30T12:24:48;19.17;;;10.70;;
17832;SDS011;9041;49.718;21.798;2023-09-30T12:27:17;21.65;;;11.20;;
17832;SDS011;9041;49.718;21.798;2023-09-30T12:29:44;16.35;;;10.80;;
17832;SDS011;9041;49.718;21.798;2023-09-30T12:32:13;20.02;;;10.90;;
17832;SDS011;9041;49.718;21.798;2023-09-30T12:34:40;22.23;;;10.43;;
17832;SDS011;9041;49.718;21.798;2023-09-30T12:37:06;22.58;;;11.50;;
17832;SDS011;9041;49.718;21.798;2023-09-30T12:39:33;19.90;;;12.27;;
17832;SDS011;9041;49.718;21.798;2023-09-30T12:42:01;22.85;;;11.82;;
17832;SDS011;9041;49.718;21.798;2023-09-30T12:44:35;27.40;;;11.20;;
17832;SDS011;9041;49.718;21.798;2023-09-30T12:47:01;23.27;;;11.85;;
17832;SDS011;9041;49.718;21.798;2023-09-30T12:49:28;23.38;;;10.88;;
17832;SDS011;9041;49.718;21.798;2023-09-30T12:51:55;18.08;;;11.02;;
17832;SDS011;9041;49.718;21.798;2023-09-30T12:54:24;24.38;;;11.63;;
17832;SDS011;9041;49.718;21.798;2023-09-30T12:56:50;26.20;;;12.43;;
17832;SDS011;9041;49.718;21.798;2023-09-30T12:59:17;26.25;;;12.35;;
17832;SDS011;9041;49.718;21.798;2023-09-30T13:01:47;22.17;;;13.00;;
17832;SDS011;9041;49.718;21.798;2023-09-30T13:04:14;26.52;;;12.75;;
17832;SDS011;9041;49.718;21.798;2023-09-30T13:06:41;33.97;;;14.48;;
17832;SDS011;9041;49.718;21.798;2023-09-30T13:09:09;27.73;;;12.60;;
17832;SDS011;9041;49.718;21.798;2023-09-30T13:11:36;23.17;;;12.48;;
17832;SDS011;9041;49.718;21.798;2023-09-30T13:14:03;24.70;;;13.07;;
17832;SDS011;9041;49.718;21.798;2023-09-30T13:16:30;38.08;;;15.07;;
17832;SDS011;9041;49.718;21.798;2023-09-30T13:18:58;36.53;;;14.77;;
17832;SDS011;9041;49.718;21.798;2023-09-30T13:21:27;31.67;;;13.38;;
17832;SDS011;9041;49.718;21.798;2023-09-30T13:23:53;24.88;;;11.52;;
17832;SDS011;9041;49.718;21.798;2023-09-30T13:26:20;23.52;;;11.75;;
17832;SDS011;9041;49.718;21.798;2023-09-30T13:28:47;29.65;;;12.40;;
17832;SDS011;9041;49.718;21.798;2023-09-30T13:31:13;28.85;;;12.77;;
17832;SDS011;9041;49.718;21.798;2023-09-30T13:33:40;40.75;;;13.93;;
17832;SDS011;9041;49.718;21.798;2023-09-30T13:36:08;60.47;;;17.88;;
17832;SDS011;9041;49.718;21.798;2023-09-30T13:38:35;53.90;;;16.45;;
17832;SDS011;9041;49.718;21.798;2023-09-30T13:41:02;65.22;;;18.38;;
17832;SDS011;9041;49.718;21.798;2023-09-30T13:43:29;59.30;;;17.70;;
17832;SDS011;9041;49.718;21.798;2023-09-30T13:45:55;64.05;;;18.30;;
17832;SDS011;9041;49.718;21.798;2023-09-30T13:48:22;65.78;;;18.23;;
17832;SDS011;9041;49.718;21.798;2023-09-30T13:50:50;34.63;;;15.05;;
17832;SDS011;9041;49.718;21.798;2023-09-30T13:53:18;48.33;;;16.52;;
17832;SDS011;9041;49.718;21.798;2023-09-30T13:55:45;39.13;;;17.35;;
17832;SDS011;9041;49.718;21.798;2023-09-30T13:58:12;38.03;;;14.57;;
17832;SDS011;9041;49.718;21.798;2023-09-30T14:00:39;41.70;;;15.93;;
17832;SDS011;9041;49.718;21.798;2023-09-30T14:03:27;39.08;;;16.67;;
17832;SDS011;9041;49.718;21.798;2023-09-30T14:05:54;36.47;;;18.40;;
17832;SDS011;9041;49.718;21.798;2023-09-30T14:08:22;49.22;;;21.02;;
17832;SDS011;9041;49.718;21.798;2023-09-30T14:10:49;41.35;;;21.38;;
17832;SDS011;9041;49.718;21.798;2023-09-30T14:13:16;43.78;;;20.63;;
17832;SDS011;9041;49.718;21.798;2023-09-30T14:15:43;35.60;;;19.88;;
17832;SDS011;9041;49.718;21.798;2023-09-30T14:18:11;48.33;;;21.17;;
17832;SDS011;9041;49.718;21.798;2023-09-30T14:20:38;49.75;;;23.05;;
17832;SDS011;9041;49.718;21.798;2023-09-30T14:23:04;53.80;;;25.50;;
17832;SDS011;9041;49.718;21.798;2023-09-30T14:25:32;46.67;;;24.02;;
17832;SDS011;9041;49.718;21.798;2023-09-30T14:27:59;49.40;;;24.25;;
17832;SDS011;9041;49.718;21.798;2023-09-30T14:30:26;49.33;;;24.52;;
17832;SDS011;9041;49.718;21.798;2023-09-30T14:32:53;47.40;;;24.70;;
17832;SDS011;9041;49.718;21.798;2023-09-30T14:35:20;43.58;;;23.92;;
17832;SDS011;9041;49.718;21.798;2023-09-30T14:37:46;42.03;;;23.70;;
17832;SDS011;9041;49.718;21.798;2023-09-30T14:40:13;48.58;;;23.52;;
17832;SDS011;9041;49.718;21.798;2023-09-30T14:42:42;61.63;;;26.38;;
17832;SDS011;9041;49.718;21.798;2023-09-30T14:45:09;72.95;;;28.23;;